sensor_id;sensor_type;location;lat;lon;timestamp;temperature;humidity
44063;DHT22;29727;47.606;19.130;2023-03-11T00:01:59;12.60;66.70
44063;DHT22;29727;47.606;19.130;2023-03-11T00:04:24;12.50;67.00
44063;DHT22;29727;47.606;19.130;2023-03-11T00:06:50;12.50;65.80
44063;DHT22;29727;47.606;19.130;2023-03-11T00:09:16;12.40;66.60
44063;DHT22;29727;47.606;19.130;2023-03-11T00:11:41;12.30;65.50
44063;DHT22;29727;47.606;19.130;2023-03-11T00:14:07;12.20;65.50
44063;DHT22;29727;47.606;19.130;2023-03-11T00:16:33;12.20;65.80
44063;DHT22;29727;47.606;19.130;2023-03-11T00:18:58;12.10;66.40
44063;DHT22;29727;47.606;19.130;2023-03-11T00:21:24;12.00;66.50
44063;DHT22;29727;47.606;19.130;2023-03-11T00:23:50;11.90;66.30
44063;DHT22;29727;47.606;19.130;2023-03-11T00:26:15;11.90;66.50
44063;DHT22;29727;47.606;19.130;2023-03-11T00:28:41;11.90;66.40
44063;DHT22;29727;47.606;19.130;2023-03-11T00:31:07;11.90;66.80
44063;DHT22;29727;47.606;19.130;2023-03-11T00:33:32;11.90;66.80
44063;DHT22;29727;47.606;19.130;2023-03-11T00:35:58;11.90;66.80
44063;DHT22;29727;47.606;19.130;2023-03-11T00:38:24;11.90;65.40
44063;DHT22;29727;47.606;19.130;2023-03-11T00:40:49;11.80;64.80
44063;DHT22;29727;47.606;19.130;2023-03-11T00:43:15;11.80;65.40
44063;DHT22;29727;47.606;19.130;2023-03-11T00:45:42;11.80;65.50
44063;DHT22;29727;47.606;19.130;2023-03-11T00:48:07;11.80;64.90
44063;DHT22;29727;47.606;19.130;2023-03-11T00:50:35;11.80;65.30
44063;DHT22;29727;47.606;19.130;2023-03-11T00:53:02;11.80;64.70
44063;DHT22;29727;47.606;19.130;2023-03-11T00:55:30;11.80;64.40
44063;DHT22;29727;47.606;19.130;2023-03-11T00:58:01;11.80;63.50
44063;DHT22;29727;47.606;19.130;2023-03-11T01:00:28;11.80;63.70
44063;DHT22;29727;47.606;19.130;2023-03-11T01:02:55;11.80;63.20
44063;DHT22;29727;47.606;19.130;2023-03-11T01:05:26;11.80;62.70
44063;DHT22;29727;47.606;19.130;2023-03-11T01:07:52;11.80;62.10
44063;DHT22;29727;47.606;19.130;2023-03-11T01:10:18;11.80;63.00
44063;DHT22;29727;47.606;19.130;2023-03-11T01:12:44;11.80;62.70
44063;DHT22;29727;47.606;19.130;2023-03-11T01:15:20;11.80;62.10
44063;DHT22;29727;47.606;19.130;2023-03-11T01:17:46;11.90;61.80
44063;DHT22;29727;47.606;19.130;2023-03-11T01:20:13;11.80;61.70
44063;DHT22;29727;47.606;19.130;2023-03-11T01:22:38;11.80;61.00
44063;DHT22;29727;47.606;19.130;2023-03-11T01:25:05;11.70;61.10
44063;DHT22;29727;47.606;19.130;2023-03-11T01:27:31;11.70;60.80
44063;DHT22;29727;47.606;19.130;2023-03-11T01:29:56;11.70;60.70
44063;DHT22;29727;47.606;19.130;2023-03-11T01:32:22;11.70;61.30
44063;DHT22;29727;47.606;19.130;2023-03-11T01:34:48;11.70;60.40
44063;DHT22;29727;47.606;19.130;2023-03-11T01:37:13;11.70;59.90
44063;DHT22;29727;47.606;19.130;2023-03-11T01:39:39;11.70;60.90
44063;DHT22;29727;47.606;19.130;2023-03-11T01:42:05;11.70;60.60
44063;DHT22;29727;47.606;19.130;2023-03-11T01:44:31;11.70;60.60
44063;DHT22;29727;47.606;19.130;2023-03-11T01:52:02;11.70;60.20
44063;DHT22;29727;47.606;19.130;2023-03-11T01:54:34;11.70;60.80
44063;DHT22;29727;47.606;19.130;2023-03-11T01:57:05;11.70;61.30
44063;DHT22;29727;47.606;19.130;2023-03-11T01:59:36;11.80;61.40
44063;DHT22;29727;47.606;19.130;2023-03-11T02:05:16;11.70;61.60
44063;DHT22;29727;47.606;19.130;2023-03-11T02:07:43;11.60;62.20
44063;DHT22;29727;47.606;19.130;2023-03-11T02:10:10;11.60;62.60
44063;DHT22;29727;47.606;19.130;2023-03-11T02:12:38;11.50;63.20
44063;DHT22;29727;47.606;19.130;2023-03-11T02:15:05;11.40;62.30
44063;DHT22;29727;47.606;19.130;2023-03-11T02:17:32;11.40;62.40
44063;DHT22;29727;47.606;19.130;2023-03-11T02:20:20;11.30;62.20
44063;DHT22;29727;47.606;19.130;2023-03-11T02:22:48;11.30;62.60
44063;DHT22;29727;47.606;19.130;2023-03-11T02:27:42;11.30;58.60
44063;DHT22;29727;47.606;19.130;2023-03-11T02:30:11;11.30;59.20
44063;DHT22;29727;47.606;19.130;2023-03-11T02:32:37;11.20;57.70
44063;DHT22;29727;47.606;19.130;2023-03-11T02:35:05;11.20;57.50
44063;DHT22;29727;47.606;19.130;2023-03-11T02:37:31;11.20;56.20
44063;DHT22;29727;47.606;19.130;2023-03-11T02:42:50;11.20;56.40
44063;DHT22;29727;47.606;19.130;2023-03-11T02:45:18;11.20;56.80
44063;DHT22;29727;47.606;19.130;2023-03-11T02:47:45;11.10;55.10
44063;DHT22;29727;47.606;19.130;2023-03-11T02:50:14;11.10;55.30
44063;DHT22;29727;47.606;19.130;2023-03-11T02:52:40;11.10;54.80
44063;DHT22;29727;47.606;19.130;2023-03-11T02:55:06;11.10;54.50
44063;DHT22;29727;47.606;19.130;2023-03-11T02:57:32;11.10;55.00
44063;DHT22;29727;47.606;19.130;2023-03-11T02:59:58;11.10;54.40
44063;DHT22;29727;47.606;19.130;2023-03-11T03:02:26;11.10;54.40
44063;DHT22;29727;47.606;19.130;2023-03-11T03:04:52;11.10;54.20
44063;DHT22;29727;47.606;19.130;2023-03-11T03:07:17;11.10;54.40
44063;DHT22;29727;47.606;19.130;2023-03-11T03:09:43;11.00;54.20
44063;DHT22;29727;47.606;19.130;2023-03-11T03:12:09;11.00;54.50
44063;DHT22;29727;47.606;19.130;2023-03-11T03:14:35;11.00;54.50
44063;DHT22;29727;47.606;19.130;2023-03-11T03:17:01;11.10;54.80
44063;DHT22;29727;47.606;19.130;2023-03-11T03:19:27;11.10;54.40
44063;DHT22;29727;47.606;19.130;2023-03-11T03:21:52;11.10;54.90
44063;DHT22;29727;47.606;19.130;2023-03-11T03:24:18;11.00;54.30
44063;DHT22;29727;47.606;19.130;2023-03-11T03:26:44;11.00;54.20
44063;DHT22;29727;47.606;19.130;2023-03-11T03:29:09;11.00;55.00
44063;DHT22;29727;47.606;19.130;2023-03-11T03:31:36;11.00;54.10
44063;DHT22;29727;47.606;19.130;2023-03-11T03:34:02;11.00;54.70
44063;DHT22;29727;47.606;19.130;2023-03-11T03:36:27;11.00;54.40
44063;DHT22;29727;47.606;19.130;2023-03-11T03:38:55;11.00;54.70
44063;DHT22;29727;47.606;19.130;2023-03-11T03:41:21;11.00;54.90
44063;DHT22;29727;47.606;19.130;2023-03-11T03:43:47;11.00;55.30
44063;DHT22;29727;47.606;19.130;2023-03-11T03:46:13;11.00;55.60
44063;DHT22;29727;47.606;19.130;2023-03-11T03:48:38;11.00;55.80
44063;DHT22;29727;47.606;19.130;2023-03-11T03:51:13;10.90;55.00
44063;DHT22;29727;47.606;19.130;2023-03-11T03:53:40;10.90;54.60
44063;DHT22;29727;47.606;19.130;2023-03-11T03:56:11;10.80;54.60
44063;DHT22;29727;47.606;19.130;2023-03-11T03:58:37;10.80;54.80
44063;DHT22;29727;47.606;19.130;2023-03-11T04:01:04;10.80;54.50
44063;DHT22;29727;47.606;19.130;2023-03-11T04:03:30;10.70;53.60
44063;DHT22;29727;47.606;19.130;2023-03-11T04:06:07;10.70;52.90
44063;DHT22;29727;47.606;19.130;2023-03-11T04:08:32;10.70;52.90
44063;DHT22;29727;47.606;19.130;2023-03-11T04:10:58;10.60;53.30
44063;DHT22;29727;47.606;19.130;2023-03-11T04:13:23;10.60;53.00
44063;DHT22;29727;47.606;19.130;2023-03-11T04:15:49;10.60;53.10
44063;DHT22;29727;47.606;19.130;2023-03-11T04:18:15;10.50;52.90
44063;DHT22;29727;47.606;19.130;2023-03-11T04:20:40;10.50;53.90
44063;DHT22;29727;47.606;19.130;2023-03-11T04:23:06;10.40;51.50
44063;DHT22;29727;47.606;19.130;2023-03-11T04:25:32;10.30;51.70
44063;DHT22;29727;47.606;19.130;2023-03-11T04:27:59;10.30;52.20
44063;DHT22;29727;47.606;19.130;2023-03-11T04:30:24;10.20;51.90
44063;DHT22;29727;47.606;19.130;2023-03-11T04:32:50;10.20;52.10
44063;DHT22;29727;47.606;19.130;2023-03-11T04:35:16;10.20;52.30
44063;DHT22;29727;47.606;19.130;2023-03-11T04:37:42;10.10;52.40
44063;DHT22;29727;47.606;19.130;2023-03-11T04:40:08;10.00;52.10
44063;DHT22;29727;47.606;19.130;2023-03-11T04:42:35;10.00;51.90
44063;DHT22;29727;47.606;19.130;2023-03-11T04:45:00;9.90;50.70
44063;DHT22;29727;47.606;19.130;2023-03-11T04:47:26;9.90;50.90
44063;DHT22;29727;47.606;19.130;2023-03-11T04:49:52;9.80;50.80
44063;DHT22;29727;47.606;19.130;2023-03-11T04:52:20;9.70;51.40
44063;DHT22;29727;47.606;19.130;2023-03-11T04:54:46;9.70;51.40
44063;DHT22;29727;47.606;19.130;2023-03-11T04:57:12;9.70;52.50
44063;DHT22;29727;47.606;19.130;2023-03-11T04:59:37;9.70;51.80
44063;DHT22;29727;47.606;19.130;2023-03-11T05:02:03;9.70;52.00
44063;DHT22;29727;47.606;19.130;2023-03-11T05:04:29;9.70;52.60
44063;DHT22;29727;47.606;19.130;2023-03-11T05:06:55;9.70;52.60
44063;DHT22;29727;47.606;19.130;2023-03-11T05:09:21;9.70;53.00
44063;DHT22;29727;47.606;19.130;2023-03-11T05:11:46;9.70;52.00
44063;DHT22;29727;47.606;19.130;2023-03-11T05:14:12;9.70;52.10
44063;DHT22;29727;47.606;19.130;2023-03-11T05:16:38;9.70;52.60
44063;DHT22;29727;47.606;19.130;2023-03-11T05:19:03;9.60;53.20
44063;DHT22;29727;47.606;19.130;2023-03-11T05:21:49;9.50;51.90
44063;DHT22;29727;47.606;19.130;2023-03-11T05:24:15;9.40;52.30
44063;DHT22;29727;47.606;19.130;2023-03-11T05:26:40;9.40;52.30
44063;DHT22;29727;47.606;19.130;2023-03-11T05:29:06;9.30;51.30
44063;DHT22;29727;47.606;19.130;2023-03-11T05:31:32;9.20;51.00
44063;DHT22;29727;47.606;19.130;2023-03-11T05:33:57;9.00;50.50
44063;DHT22;29727;47.606;19.130;2023-03-11T05:36:23;8.90;51.90
44063;DHT22;29727;47.606;19.130;2023-03-11T05:38:48;8.80;52.50
44063;DHT22;29727;47.606;19.130;2023-03-11T05:41:14;8.80;50.90
44063;DHT22;29727;47.606;19.130;2023-03-11T05:43:40;8.60;48.60
44063;DHT22;29727;47.606;19.130;2023-03-11T05:46:05;8.50;47.00
44063;DHT22;29727;47.606;19.130;2023-03-11T05:48:31;8.50;48.10
44063;DHT22;29727;47.606;19.130;2023-03-11T05:50:57;8.30;47.80
44063;DHT22;29727;47.606;19.130;2023-03-11T05:53:23;8.30;48.40
44063;DHT22;29727;47.606;19.130;2023-03-11T05:55:56;8.20;47.20
44063;DHT22;29727;47.606;19.130;2023-03-11T05:58:22;8.10;47.30
44063;DHT22;29727;47.606;19.130;2023-03-11T06:00:48;8.10;47.60
44063;DHT22;29727;47.606;19.130;2023-03-11T06:03:13;8.00;47.90
44063;DHT22;29727;47.606;19.130;2023-03-11T06:05:46;7.90;48.30
44063;DHT22;29727;47.606;19.130;2023-03-11T06:08:12;7.90;47.90
44063;DHT22;29727;47.606;19.130;2023-03-11T06:10:38;7.80;47.60
44063;DHT22;29727;47.606;19.130;2023-03-11T06:13:04;7.70;48.10
44063;DHT22;29727;47.606;19.130;2023-03-11T06:15:31;7.70;48.30
44063;DHT22;29727;47.606;19.130;2023-03-11T06:17:57;7.60;49.10
44063;DHT22;29727;47.606;19.130;2023-03-11T06:20:23;7.60;49.10
44063;DHT22;29727;47.606;19.130;2023-03-11T06:22:49;7.60;48.60
44063;DHT22;29727;47.606;19.130;2023-03-11T06:25:15;7.60;49.00
44063;DHT22;29727;47.606;19.130;2023-03-11T06:27:41;7.70;49.60
44063;DHT22;29727;47.606;19.130;2023-03-11T06:30:09;7.70;48.50
44063;DHT22;29727;47.606;19.130;2023-03-11T06:32:35;7.60;49.00
44063;DHT22;29727;47.606;19.130;2023-03-11T06:35:02;7.70;49.60
44063;DHT22;29727;47.606;19.130;2023-03-11T06:37:28;7.60;48.80
44063;DHT22;29727;47.606;19.130;2023-03-11T06:39:54;7.70;48.80
44063;DHT22;29727;47.606;19.130;2023-03-11T06:42:21;7.60;47.60
44063;DHT22;29727;47.606;19.130;2023-03-11T06:44:48;7.60;47.70
44063;DHT22;29727;47.606;19.130;2023-03-11T06:47:14;7.50;48.30
44063;DHT22;29727;47.606;19.130;2023-03-11T06:49:40;7.50;49.10
44063;DHT22;29727;47.606;19.130;2023-03-11T06:52:07;7.50;48.70
44063;DHT22;29727;47.606;19.130;2023-03-11T06:54:34;7.40;48.40
44063;DHT22;29727;47.606;19.130;2023-03-11T06:57:00;7.40;48.00
44063;DHT22;29727;47.606;19.130;2023-03-11T06:59:26;7.40;48.50
44063;DHT22;29727;47.606;19.130;2023-03-11T07:01:53;7.30;48.40
44063;DHT22;29727;47.606;19.130;2023-03-11T07:04:19;7.30;48.40
44063;DHT22;29727;47.606;19.130;2023-03-11T07:06:45;7.30;48.70
44063;DHT22;29727;47.606;19.130;2023-03-11T07:09:11;7.30;48.30
44063;DHT22;29727;47.606;19.130;2023-03-11T07:11:37;7.30;49.10
44063;DHT22;29727;47.606;19.130;2023-03-11T07:14:03;7.20;48.40
44063;DHT22;29727;47.606;19.130;2023-03-11T07:16:29;7.20;49.00
44063;DHT22;29727;47.606;19.130;2023-03-11T07:18:57;7.20;49.00
44063;DHT22;29727;47.606;19.130;2023-03-11T07:21:23;7.20;49.40
44063;DHT22;29727;47.606;19.130;2023-03-11T07:23:58;7.20;49.00
44063;DHT22;29727;47.606;19.130;2023-03-11T07:26:24;7.30;49.80
44063;DHT22;29727;47.606;19.130;2023-03-11T07:28:50;7.20;49.10
44063;DHT22;29727;47.606;19.130;2023-03-11T07:31:23;7.20;48.70
44063;DHT22;29727;47.606;19.130;2023-03-11T07:33:49;7.20;48.10
44063;DHT22;29727;47.606;19.130;2023-03-11T07:36:20;7.20;48.70
44063;DHT22;29727;47.606;19.130;2023-03-11T07:38:47;7.20;48.60
44063;DHT22;29727;47.606;19.130;2023-03-11T07:41:14;7.20;48.70
44063;DHT22;29727;47.606;19.130;2023-03-11T07:43:41;7.20;49.20
44063;DHT22;29727;47.606;19.130;2023-03-11T07:46:08;7.10;48.70
44063;DHT22;29727;47.606;19.130;2023-03-11T07:48:36;7.20;50.10
44063;DHT22;29727;47.606;19.130;2023-03-11T07:51:04;7.30;49.30
44063;DHT22;29727;47.606;19.130;2023-03-11T07:53:30;7.30;49.70
44063;DHT22;29727;47.606;19.130;2023-03-11T07:55:57;7.30;48.90
44063;DHT22;29727;47.606;19.130;2023-03-11T07:58:23;7.40;49.20
44063;DHT22;29727;47.606;19.130;2023-03-11T08:00:49;7.40;49.10
44063;DHT22;29727;47.606;19.130;2023-03-11T08:03:15;7.40;49.00
44063;DHT22;29727;47.606;19.130;2023-03-11T08:05:41;7.40;49.30
44063;DHT22;29727;47.606;19.130;2023-03-11T08:08:07;7.40;49.30
44063;DHT22;29727;47.606;19.130;2023-03-11T08:10:36;7.50;49.80
44063;DHT22;29727;47.606;19.130;2023-03-11T08:13:01;7.50;50.20
44063;DHT22;29727;47.606;19.130;2023-03-11T08:15:27;7.60;49.80
44063;DHT22;29727;47.606;19.130;2023-03-11T08:17:52;7.70;48.80
44063;DHT22;29727;47.606;19.130;2023-03-11T08:20:18;7.70;48.40
44063;DHT22;29727;47.606;19.130;2023-03-11T08:22:44;7.70;49.00
44063;DHT22;29727;47.606;19.130;2023-03-11T08:25:10;7.60;48.80
44063;DHT22;29727;47.606;19.130;2023-03-11T08:27:35;7.60;49.30
44063;DHT22;29727;47.606;19.130;2023-03-11T08:30:01;7.50;49.20
44063;DHT22;29727;47.606;19.130;2023-03-11T08:32:27;7.60;49.30
44063;DHT22;29727;47.606;19.130;2023-03-11T08:34:56;7.50;49.20
44063;DHT22;29727;47.606;19.130;2023-03-11T08:37:22;7.50;49.10
44063;DHT22;29727;47.606;19.130;2023-03-11T08:39:48;7.40;49.10
44063;DHT22;29727;47.606;19.130;2023-03-11T08:42:15;7.40;49.00
44063;DHT22;29727;47.606;19.130;2023-03-11T08:44:40;7.40;50.30
44063;DHT22;29727;47.606;19.130;2023-03-11T08:47:06;7.40;50.00
44063;DHT22;29727;47.606;19.130;2023-03-11T08:49:32;7.40;50.40
44063;DHT22;29727;47.606;19.130;2023-03-11T08:51:57;7.50;50.30
44063;DHT22;29727;47.606;19.130;2023-03-11T08:54:23;7.60;49.90
44063;DHT22;29727;47.606;19.130;2023-03-11T08:56:49;7.60;49.20
44063;DHT22;29727;47.606;19.130;2023-03-11T08:59:14;7.50;48.90
44063;DHT22;29727;47.606;19.130;2023-03-11T09:01:40;7.60;48.90
44063;DHT22;29727;47.606;19.130;2023-03-11T09:04:07;7.60;49.30
44063;DHT22;29727;47.606;19.130;2023-03-11T09:06:32;7.60;47.70
44063;DHT22;29727;47.606;19.130;2023-03-11T09:08:58;7.50;48.10
44063;DHT22;29727;47.606;19.130;2023-03-11T09:11:24;7.60;48.50
44063;DHT22;29727;47.606;19.130;2023-03-11T09:13:49;7.50;48.50
44063;DHT22;29727;47.606;19.130;2023-03-11T09:16:18;7.50;49.40
44063;DHT22;29727;47.606;19.130;2023-03-11T09:18:44;7.40;48.80
44063;DHT22;29727;47.606;19.130;2023-03-11T09:21:10;7.40;49.80
44063;DHT22;29727;47.606;19.130;2023-03-11T09:23:37;7.40;50.20
44063;DHT22;29727;47.606;19.130;2023-03-11T09:26:03;7.40;50.50
44063;DHT22;29727;47.606;19.130;2023-03-11T09:28:28;7.50;50.30
44063;DHT22;29727;47.606;19.130;2023-03-11T09:30:54;7.40;50.50
44063;DHT22;29727;47.606;19.130;2023-03-11T09:33:20;7.40;50.70
44063;DHT22;29727;47.606;19.130;2023-03-11T09:35:45;7.40;50.60
44063;DHT22;29727;47.606;19.130;2023-03-11T09:38:11;7.50;50.20
44063;DHT22;29727;47.606;19.130;2023-03-11T09:40:56;7.40;51.20
44063;DHT22;29727;47.606;19.130;2023-03-11T09:45:59;7.40;52.40
